createdAt,value
2019-04-27T00:01:35.410Z,71.93
2019-04-27T00:04:05.621Z,72.47
2019-04-27T00:06:51.238Z,72.79
2019-04-27T00:12:26.302Z,72.81
2019-04-27T00:14:54.953Z,72.32
2019-04-27T00:17:42.493Z,72.59
2019-04-27T00:19:56.525Z,72.67
2019-04-27T00:22:33.489Z,72.35
2019-04-27T00:25:03.466Z,72.16
2019-04-27T00:27:33.483Z,71.48
2019-04-27T00:30:03.838Z,72.31
2019-04-27T00:32:33.197Z,72.93
2019-04-27T00:35:03.563Z,72.29
2019-04-27T00:37:36.679Z,71.83
2019-04-27T00:40:23.688Z,71.63
2019-04-27T00:42:54.033Z,72.58
2019-04-27T00:45:23.397Z,72.72
2019-04-27T00:47:59.078Z,72.89
2019-04-27T00:50:23.521Z,72.68
2019-04-27T00:52:53.222Z,72.51
2019-04-27T00:55:23.416Z,72.38
2019-04-27T00:58:04.208Z,72.67
2019-04-27T01:00:37.219Z,72.37
2019-04-27T01:03:10.468Z,72.39
2019-04-27T01:05:38.955Z,71.63
2019-04-27T01:08:08.954Z,71.84
2019-04-27T01:10:37.405Z,71.58
2019-04-27T01:13:05.901Z,71.28
2019-04-27T01:15:34.439Z,71.51
2019-04-27T01:18:12.274Z,71.81
2019-04-27T01:20:33.674Z,71.87
2019-04-27T01:23:02.173Z,71.75
2019-04-27T01:25:32.506Z,71.49
2019-04-27T01:28:09.755Z,71.01
2019-04-27T01:30:39.892Z,70.91
2019-04-27T01:33:09.803Z,71.30
2019-04-27T01:35:39.130Z,71.11
2019-04-27T01:38:09.020Z,70.95
2019-04-27T01:40:38.609Z,71.16
2019-04-27T01:43:09.047Z,70.94
2019-04-27T01:45:39.135Z,71.02
2019-04-27T01:48:20.888Z,70.65
2019-04-27T01:50:39.204Z,70.69
2019-04-27T01:53:09.079Z,70.75
2019-04-27T01:55:45.397Z,70.41
2019-04-27T01:58:13.979Z,70.96
2019-04-27T02:00:51.261Z,70.57
2019-04-27T02:03:22.290Z,70.40
2019-04-27T02:05:52.570Z,70.12
2019-04-27T02:08:20.993Z,70.38
2019-04-27T02:10:49.680Z,70.92
2019-04-27T02:13:18.913Z,70.53
2019-04-27T02:15:48.661Z,70.44
2019-04-27T02:18:19.304Z,70.50
2019-04-27T02:20:49.220Z,70.92
2019-04-27T02:23:19.353Z,70.48
2019-04-27T02:25:49.622Z,70.47
2019-04-27T02:28:25.875Z,70.85
2019-04-27T02:30:56.064Z,70.41
2019-04-27T02:33:26.182Z,70.82
2019-04-27T02:35:55.040Z,70.75
2019-04-27T02:38:23.759Z,70.76
2019-04-27T02:40:54.841Z,70.90
2019-04-27T02:43:44.034Z,70.80
2019-04-27T02:46:23.013Z,71.01
2019-04-27T02:48:59.882Z,70.90
2019-04-27T02:51:40.582Z,71.14
2019-04-27T02:54:09.874Z,71.06
2019-04-27T02:56:40.522Z,71.19
2019-04-27T02:59:11.987Z,71.27
2019-04-27T03:01:46.325Z,71.11
2019-04-27T03:04:11.810Z,72.16
2019-04-27T03:06:40.564Z,71.68
2019-04-27T03:09:10.424Z,72.04
2019-04-27T03:11:39.724Z,71.82
2019-04-27T03:14:28.398Z,71.62
2019-04-27T03:16:44.934Z,71.97
2019-04-27T03:19:30.102Z,72.27
2019-04-27T03:22:09.431Z,72.10
2019-04-27T03:24:54.836Z,72.54
2019-04-27T03:27:24.905Z,72.18
2019-04-27T03:29:53.396Z,72.06
2019-04-27T03:32:23.258Z,72.14
2019-04-27T03:34:52.791Z,72.18
2019-04-27T03:37:21.513Z,72.80
2019-04-27T03:39:50.113Z,72.55
2019-04-27T03:42:20.690Z,72.62
2019-04-27T03:44:50.200Z,72.47
2019-04-27T03:47:19.756Z,72.48
2019-04-27T03:49:50.703Z,72.67
2019-04-27T03:52:29.973Z,72.09
2019-04-27T03:55:19.554Z,72.31
2019-04-27T03:57:49.845Z,72.34
2019-04-27T04:00:20.238Z,72.10
2019-04-27T04:02:50.502Z,72.60
2019-04-27T04:05:19.849Z,72.90
2019-04-27T04:07:50.347Z,72.83
2019-04-27T04:10:19.952Z,73.08
2019-04-27T04:12:50.269Z,73.20
2019-04-27T04:15:26.516Z,73.48
2019-04-27T04:17:54.957Z,73.10
2019-04-27T04:20:23.435Z,73.05
2019-04-27T04:23:02.785Z,73.21
2019-04-27T04:25:30.134Z,72.86
2019-04-27T04:28:00.488Z,73.11
2019-04-27T04:30:30.305Z,73.05
2019-04-27T04:32:59.945Z,73.36
2019-04-27T04:35:32.520Z,73.71
2019-04-27T04:38:00.187Z,73.67
2019-04-27T04:40:36.871Z,73.54
2019-04-27T04:43:16.140Z,73.65
2019-04-27T04:45:54.999Z,73.67
2019-04-27T04:48:23.567Z,73.36
2019-04-27T04:50:51.981Z,73.36
2019-04-27T04:53:20.909Z,74.00
2019-04-27T04:55:49.628Z,73.52
2019-04-27T04:58:20.951Z,72.66
2019-04-27T05:00:50.169Z,72.99
2019-04-27T05:03:21.421Z,73.08
2019-04-27T05:05:50.263Z,72.92
2019-04-27T05:08:19.098Z,73.25
2019-04-27T05:10:49.752Z,73.06
2019-04-27T05:13:19.390Z,73.40
2019-04-27T05:15:48.651Z,72.94
2019-04-27T05:18:19.122Z,72.59
2019-04-27T05:20:52.300Z,72.94
2019-04-27T05:23:20.722Z,73.06
2019-04-27T05:25:49.424Z,72.67
2019-04-27T05:28:18.704Z,72.50
2019-04-27T05:30:54.745Z,72.55
2019-04-27T05:33:33.691Z,72.72
2019-04-27T05:36:09.992Z,71.91
2019-04-27T05:38:45.899Z,72.01
2019-04-27T05:41:37.460Z,72.38
2019-04-27T05:44:07.546Z,72.06
2019-04-27T05:47:14.485Z,71.83
2019-04-27T05:49:48.566Z,70.83
2019-04-27T05:52:24.449Z,71.01
2019-04-27T05:54:53.385Z,70.36
2019-04-27T05:57:22.172Z,70.31
2019-04-27T05:59:52.245Z,70.50
2019-04-27T06:02:36.463Z,70.33
2019-04-27T06:05:22.940Z,69.92
2019-04-27T06:07:54.559Z,70.25
2019-04-27T06:10:23.285Z,70.99
2019-04-27T06:12:51.982Z,70.93
2019-04-27T06:15:42.775Z,70.46
2019-04-27T06:18:11.162Z,70.21
2019-04-27T06:20:51.319Z,70.42
2019-04-27T06:23:09.948Z,70.38
2019-04-27T06:25:39.396Z,70.50
2019-04-27T06:28:09.215Z,69.76
2019-04-27T06:30:39.165Z,70.04
2019-04-27T06:33:12.225Z,70.05
2019-04-27T06:35:40.883Z,70.58
2019-04-27T06:38:22.778Z,70.50
2019-04-27T06:40:51.346Z,70.29
2019-04-27T06:43:19.802Z,70.79
2019-04-27T06:45:48.874Z,70.25
2019-04-27T06:48:19.304Z,70.53
2019-04-27T06:50:50.225Z,70.39
2019-04-27T06:53:19.151Z,70.13
2019-04-27T06:55:55.655Z,70.10
2019-04-27T06:58:24.043Z,70.13
2019-04-27T07:00:52.728Z,70.00
2019-04-27T07:03:21.190Z,70.51
2019-04-27T07:05:49.635Z,69.98
2019-04-27T07:08:18.727Z,70.13
2019-04-27T07:10:49.013Z,70.01
2019-04-27T07:13:42.420Z,70.16
2019-04-27T07:16:11.832Z,70.51
2019-04-27T07:18:40.398Z,70.37
2019-04-27T07:21:16.903Z,70.37
2019-04-27T07:23:42.170Z,70.17
2019-04-27T07:26:10.622Z,69.51
2019-04-27T07:28:39.279Z,68.96
2019-04-27T07:31:16.868Z,69.12
2019-04-27T07:33:45.261Z,69.34
2019-04-27T07:36:14.479Z,69.25
2019-04-27T07:38:43.021Z,69.49
2019-04-27T07:41:11.584Z,69.84
2019-04-27T07:43:50.424Z,70.75
2019-04-27T07:46:18.914Z,70.75
2019-04-27T07:48:47.328Z,70.92
2019-04-27T07:51:15.880Z,71.12
2019-04-27T07:53:44.431Z,71.15
2019-04-27T07:56:12.868Z,71.07
2019-04-27T07:58:41.404Z,70.86
2019-04-27T08:01:12.620Z,71.82
2019-04-27T08:03:46.117Z,72.18
2019-04-27T08:06:14.665Z,72.53
2019-04-27T08:08:43.218Z,72.58
2019-04-27T08:11:14.553Z,72.81
2019-04-27T08:13:45.970Z,73.17
2019-04-27T08:16:24.779Z,72.50
2019-04-27T08:18:53.436Z,72.60
2019-04-27T08:21:22.094Z,72.70
2019-04-27T08:23:53.863Z,72.36
2019-04-27T08:26:32.751Z,71.97
2019-04-27T08:29:41.885Z,71.96
2019-04-27T08:32:19.575Z,71.77
2019-04-27T08:35:16.308Z,71.31
2019-04-27T08:37:44.702Z,71.19
2019-04-27T08:40:13.534Z,71.48
2019-04-27T08:42:42.438Z,71.33
2019-04-27T08:45:13.071Z,71.80
2019-04-27T08:47:41.847Z,71.69
2019-04-27T08:50:11.158Z,71.16
2019-04-27T08:55:25.961Z,71.67
2019-04-27T08:57:56.153Z,71.74
2019-04-27T09:00:25.069Z,71.82
2019-04-27T09:02:53.507Z,71.75
2019-04-27T09:05:41.286Z,71.50
2019-04-27T09:08:19.009Z,71.15
2019-04-27T09:10:52.776Z,71.02
2019-04-27T09:13:39.439Z,70.54
2019-04-27T09:16:18.621Z,69.56
2019-04-27T09:18:49.847Z,68.61
2019-04-27T09:21:19.166Z,65.54
2019-04-27T09:23:54.183Z,63.98
2019-04-27T09:26:22.664Z,65.56
2019-04-27T09:28:51.079Z,66.73
2019-04-27T09:33:54.247Z,67.79
2019-04-27T09:36:22.656Z,66.49
2019-04-27T09:38:51.865Z,63.53
2019-04-27T09:41:20.600Z,63.42
2019-04-27T09:43:49.055Z,63.15
2019-04-27T09:46:23.885Z,64.11
2019-04-27T09:48:52.508Z,62.79
2019-04-27T09:51:21.423Z,61.75
2019-04-27T09:53:49.893Z,62.11
2019-04-27T09:56:18.323Z,61.60
2019-04-27T09:58:47.156Z,61.13
2019-04-27T10:01:16.364Z,62.44
2019-04-27T10:03:46.325Z,65.17
2019-04-27T10:06:27.951Z,66.34
2019-04-27T10:09:02.124Z,66.67
2019-04-27T10:11:30.732Z,66.36
2019-04-27T10:13:59.329Z,66.57
2019-04-27T10:16:30.684Z,66.24
2019-04-27T10:21:37.554Z,67.26
2019-04-27T10:24:07.732Z,67.46
2019-04-27T10:26:36.359Z,67.37
2019-04-27T10:29:17.678Z,67.42
2019-04-27T10:31:53.509Z,67.70
2019-04-27T10:34:24.562Z,68.22
2019-04-27T10:36:52.903Z,69.00
2019-04-27T10:39:21.464Z,69.83
2019-04-27T10:41:49.975Z,69.83
2019-04-27T10:44:33.302Z,69.47
2019-04-27T10:47:02.041Z,67.90
2019-04-27T10:49:37.814Z,67.74
2019-04-27T10:52:06.658Z,66.38
2019-04-27T10:54:35.113Z,66.15
2019-04-27T10:57:06.776Z,65.32
2019-04-27T10:59:36.042Z,64.69
2019-04-27T11:02:04.880Z,65.14
2019-04-27T11:04:40.817Z,65.40
2019-04-27T11:07:11.141Z,66.66
2019-04-27T11:09:42.514Z,67.09
2019-04-27T11:12:11.042Z,67.54
2019-04-27T11:14:50.400Z,68.27
2019-04-27T11:17:18.889Z,68.52
2019-04-27T11:19:47.470Z,68.99
2019-04-27T11:22:16.263Z,69.95
2019-04-27T11:24:45.846Z,71.04
2019-04-27T11:27:14.828Z,71.57
2019-04-27T11:29:43.236Z,72.47
2019-04-27T11:32:12.114Z,72.89
2019-04-27T11:34:58.367Z,72.87
2019-04-27T11:37:28.434Z,73.62
2019-04-27T11:39:56.864Z,74.53
2019-04-27T11:42:25.401Z,73.75
2019-04-27T11:44:57.543Z,74.26
2019-04-27T11:47:24.066Z,74.90
2019-04-27T11:49:52.742Z,75.16
2019-04-27T11:52:21.174Z,75.20
2019-04-27T11:54:49.609Z,75.85
2019-04-27T11:57:18.020Z,75.46
2019-04-27T11:59:48.266Z,75.62
2019-04-27T12:02:17.592Z,75.55
2019-04-27T12:04:46.751Z,75.90
2019-04-27T12:07:15.139Z,74.50
2019-04-27T12:09:48.078Z,74.03
2019-04-27T12:12:21.790Z,72.71
2019-04-27T12:14:48.200Z,72.50
2019-04-27T12:17:18.359Z,72.72
2019-04-27T12:19:47.080Z,72.01
2019-04-27T12:22:16.394Z,70.71
2019-04-27T12:24:49.554Z,71.97
2019-04-27T12:27:35.910Z,71.46
2019-04-27T12:30:20.960Z,71.95
2019-04-27T12:33:03.407Z,71.93
2019-04-27T12:35:31.956Z,71.79
2019-04-27T12:38:05.869Z,72.35
2019-04-27T12:40:36.705Z,71.15
2019-04-27T12:43:05.428Z,70.59
2019-04-27T12:45:43.617Z,70.21
2019-04-27T12:51:31.622Z,71.59
2019-04-27T12:54:13.594Z,71.78
2019-04-27T13:00:32.202Z,71.37
2019-04-27T13:03:17.803Z,72.83
2019-04-27T13:05:46.263Z,73.39
2019-04-27T13:08:14.892Z,73.78
2019-04-27T13:10:47.112Z,74.73
2019-04-27T13:13:16.421Z,75.51
2019-04-27T13:15:45.968Z,76.80
2019-04-27T13:18:16.734Z,77.43
2019-04-27T13:21:02.060Z,75.21
2019-04-27T13:23:30.581Z,72.84
2019-04-27T13:26:00.493Z,71.15
2019-04-27T13:28:28.999Z,70.74
2019-04-27T13:30:57.511Z,70.50
2019-04-27T13:33:26.324Z,70.20
2019-04-27T13:35:54.898Z,69.80
2019-04-27T13:38:23.436Z,71.46
2019-04-27T13:40:59.688Z,69.67
2019-04-27T13:43:29.743Z,70.01
2019-04-27T13:46:02.501Z,69.72
2019-04-27T13:48:32.609Z,70.59
2019-04-27T13:51:11.535Z,72.48
2019-04-27T13:53:39.967Z,72.07
2019-04-27T13:56:17.661Z,69.97
2019-04-27T13:58:52.643Z,70.93
2019-04-27T14:01:16.670Z,71.44
2019-04-27T14:03:45.242Z,70.16
2019-04-27T14:06:13.951Z,69.25
2019-04-27T14:08:42.512Z,68.67
2019-04-27T14:11:11.094Z,68.73
2019-04-27T14:13:39.525Z,68.41
2019-04-27T14:16:08.701Z,70.98
2019-04-27T14:18:38.494Z,69.30
2019-04-27T14:21:07.093Z,68.53
2019-04-27T14:23:35.541Z,68.48
2019-04-27T14:26:04.117Z,67.87
2019-04-27T14:28:34.151Z,68.65
2019-04-27T14:31:02.582Z,70.72
2019-04-27T14:33:30.997Z,68.94
2019-04-27T14:35:59.629Z,68.15
2019-04-27T14:38:28.139Z,66.75
2019-04-27T14:40:56.546Z,67.07
2019-04-27T14:43:24.980Z,67.36
2019-04-27T14:45:53.414Z,65.68
2019-04-27T14:48:21.821Z,65.66
2019-04-27T14:50:50.219Z,64.80
2019-04-27T14:53:18.759Z,65.03
2019-04-27T14:55:48.869Z,64.19
2019-04-27T14:58:19.133Z,65.07
2019-04-27T15:00:49.697Z,65.77
2019-04-27T15:03:18.015Z,66.76
2019-04-27T15:05:49.770Z,66.74
2019-04-27T15:08:16.686Z,67.05
2019-04-27T15:10:46.447Z,65.19
2019-04-27T15:13:14.999Z,65.13
2019-04-27T15:15:43.636Z,65.35
2019-04-27T15:18:12.457Z,65.57
2019-04-27T15:20:46.626Z,66.33
2019-04-27T15:23:15.339Z,66.29
2019-04-27T15:25:46.941Z,65.62
2019-04-27T15:28:18.503Z,64.31
2019-04-27T15:31:04.207Z,64.30
2019-04-27T15:33:53.280Z,62.87
2019-04-27T15:36:31.686Z,62.59
2019-04-27T15:39:22.521Z,59.47
2019-04-27T15:42:07.908Z,60.63
2019-04-27T15:44:41.133Z,60.13
2019-04-27T15:47:17.785Z,59.11
2019-04-27T15:50:01.654Z,58.36
2019-04-27T15:52:33.116Z,60.53
2019-04-27T15:55:02.871Z,59.66
2019-04-27T15:57:32.563Z,60.00
2019-04-27T16:00:01.136Z,61.52
2019-04-27T16:02:55.609Z,61.02
2019-04-27T16:25:31.548Z,58.68
2019-04-27T16:28:04.603Z,58.55
2019-04-27T16:30:35.991Z,57.97
2019-04-27T16:33:05.143Z,57.91
2019-04-27T16:35:33.720Z,58.73
2019-04-27T16:38:21.877Z,58.46
2019-04-27T16:40:50.378Z,59.83
2019-04-27T16:43:18.870Z,60.70
2019-04-27T16:45:50.527Z,61.55
2019-04-27T16:48:18.958Z,61.56
2019-04-27T16:50:47.399Z,62.11
2019-04-27T16:53:15.863Z,62.73
2019-04-27T16:55:44.352Z,63.85
2019-04-27T16:58:15.993Z,63.24
2019-04-27T17:00:43.925Z,63.04
2019-04-27T17:03:12.435Z,62.02
2019-04-27T17:05:41.039Z,61.61
2019-04-27T17:08:14.349Z,61.76
2019-04-27T17:10:39.850Z,60.11
2019-04-27T17:13:12.943Z,60.07
2019-04-27T17:15:46.021Z,60.17
2019-04-27T17:18:24.211Z,60.71
2019-04-27T17:20:52.598Z,60.50
2019-04-27T17:23:32.710Z,61.10
2019-04-27T17:26:06.234Z,62.25
2019-04-27T17:28:37.641Z,63.03
2019-04-27T17:31:08.809Z,62.29
2019-04-27T17:33:51.299Z,60.98
2019-04-27T17:36:20.005Z,62.88
2019-04-27T17:38:50.963Z,62.78
2019-04-27T17:41:22.174Z,62.88
2019-04-27T17:43:50.759Z,62.46
2019-04-27T17:46:19.939Z,62.69
2019-04-27T17:48:49.637Z,63.07
2019-04-27T17:51:18.371Z,62.76
2019-04-27T17:53:49.721Z,63.16
2019-04-27T17:56:18.512Z,62.97
2019-04-27T17:58:48.718Z,61.18
2019-04-27T18:01:29.314Z,60.87
2019-04-27T18:04:02.764Z,59.62
2019-04-27T18:06:29.793Z,58.56
2019-04-27T18:09:00.850Z,58.72
2019-04-27T18:11:28.882Z,59.22
2019-04-27T18:14:00.318Z,57.77
2019-04-27T18:16:34.378Z,57.80
2019-04-27T18:19:18.708Z,56.34
2019-04-27T18:22:01.059Z,56.20
2019-04-27T18:24:55.792Z,55.32
2019-04-27T18:27:37.700Z,55.59
2019-04-27T18:30:15.097Z,55.49
2019-04-27T18:32:50.951Z,55.52
2019-04-27T18:35:26.160Z,55.91
2019-04-27T18:37:53.675Z,55.52
2019-04-27T18:40:24.159Z,56.44
2019-04-27T18:42:53.340Z,57.22
2019-04-27T18:45:22.035Z,56.50
2019-04-27T18:47:52.299Z,56.82
2019-04-27T18:50:52.204Z,57.25
2019-04-27T18:53:24.624Z,56.95
2019-04-27T18:55:59.346Z,56.62
2019-04-27T18:58:24.926Z,56.65
2019-04-27T19:01:00.096Z,56.61
2019-04-27T19:03:45.533Z,55.91
2019-04-27T19:06:14.317Z,57.09
2019-04-27T19:08:43.029Z,58.31
2019-04-27T19:14:01.816Z,59.51
2019-04-27T19:16:30.484Z,60.95
2019-04-27T19:19:01.773Z,61.84
2019-04-27T19:21:30.361Z,62.27
2019-04-27T19:23:59.141Z,62.86
2019-04-27T19:26:38.258Z,63.70
2019-04-27T19:29:14.539Z,64.03
2019-04-27T19:31:48.399Z,62.69
2019-04-27T19:34:20.619Z,62.02
2019-04-27T19:36:49.409Z,61.79
2019-04-27T19:39:18.190Z,60.61
2019-04-27T19:41:57.925Z,60.70
2019-04-27T19:44:23.188Z,61.45
2019-04-27T19:46:51.592Z,60.95
2019-04-27T19:49:23.729Z,60.62
2019-04-27T19:51:52.297Z,60.94
2019-04-27T19:54:20.878Z,61.28
2019-04-27T19:56:50.037Z,61.59
2019-04-27T19:59:30.755Z,61.73
2019-04-27T20:02:01.159Z,62.12
2019-04-27T20:04:34.125Z,62.01
2019-04-27T20:07:02.828Z,62.72
2019-04-27T20:09:42.103Z,62.23
2019-04-27T20:12:10.678Z,61.96
2019-04-27T20:14:57.260Z,61.85
2019-04-27T20:17:31.101Z,62.88
2019-04-27T20:20:01.829Z,62.39
2019-04-27T20:22:30.853Z,62.75
2019-04-27T20:25:01.505Z,62.39
2019-04-27T20:27:32.157Z,62.56
2019-04-27T20:30:00.644Z,63.02
2019-04-27T20:32:47.785Z,63.23
2019-04-27T20:35:16.239Z,63.37
2019-04-27T20:37:44.695Z,62.98
2019-04-27T20:40:13.890Z,63.57
2019-04-27T20:42:42.447Z,63.39
2019-04-27T20:45:11.990Z,63.63
2019-04-27T20:47:45.741Z,63.22
2019-04-27T20:50:13.912Z,62.76
2019-04-27T20:52:44.086Z,62.61
2019-04-27T20:55:13.335Z,63.17
2019-04-27T20:57:42.076Z,62.73
2019-04-27T21:00:12.198Z,62.76
2019-04-27T21:02:48.119Z,62.73
2019-04-27T21:05:34.342Z,62.32
2019-04-27T21:08:26.941Z,61.94
2019-04-27T21:11:05.897Z,62.06
2019-04-27T21:13:34.348Z,61.37
2019-04-27T21:16:15.154Z,61.60
2019-04-27T21:18:43.605Z,60.87
2019-04-27T21:21:12.460Z,61.32
2019-04-27T21:23:41.563Z,61.45
2019-04-27T21:26:10.188Z,61.28
2019-04-27T21:28:43.009Z,61.46
2019-04-27T21:31:12.680Z,61.86
2019-04-27T21:33:41.466Z,61.67
2019-04-27T21:36:11.728Z,61.29
2019-04-27T21:38:42.555Z,60.02
2019-04-27T21:41:16.327Z,60.14
2019-04-27T21:43:44.923Z,60.11
2019-04-27T21:46:13.441Z,60.26
2019-04-27T21:48:42.159Z,59.52
2019-04-27T21:51:11.804Z,59.40
2019-04-27T21:53:58.622Z,59.37
2019-04-27T21:56:27.386Z,58.86
2019-04-27T21:58:55.906Z,58.74
2019-04-27T22:01:26.270Z,59.04
2019-04-27T22:03:54.858Z,59.08
2019-04-27T22:06:23.493Z,59.65
2019-04-27T22:08:51.893Z,60.66
2019-04-27T22:11:23.820Z,60.35
2019-04-27T22:13:52.380Z,60.61
2019-04-27T22:16:21.400Z,60.91
2019-04-27T22:18:51.845Z,60.90
2019-04-27T22:21:21.668Z,60.81
2019-04-27T22:23:51.912Z,60.87
2019-04-27T22:26:21.373Z,62.42
2019-04-27T22:28:51.910Z,61.23
2019-04-27T22:31:21.237Z,61.62
2019-04-27T22:33:53.287Z,61.67
2019-04-27T22:36:21.191Z,61.99
2019-04-27T22:38:51.518Z,62.37
2019-04-27T22:41:33.858Z,62.08
2019-04-27T22:44:19.449Z,62.59
2019-04-27T22:46:52.166Z,63.26
2019-04-27T22:49:21.104Z,62.71
2019-04-27T22:51:51.240Z,63.40
2019-04-27T22:54:21.658Z,63.39
2019-04-27T22:56:51.949Z,63.38
2019-04-27T22:59:37.572Z,62.61
2019-04-27T23:02:07.754Z,63.38
2019-04-27T23:04:37.904Z,62.15
2019-04-27T23:07:06.462Z,61.87
2019-04-27T23:09:34.904Z,62.26
2019-04-27T23:12:04.544Z,62.39
2019-04-27T23:14:33.121Z,61.73
2019-04-27T23:17:15.583Z,61.83
2019-04-27T23:19:47.207Z,61.62
2019-04-27T23:22:18.774Z,61.25
2019-04-27T23:24:51.864Z,61.44
2019-04-27T23:27:37.448Z,61.00
2019-04-27T23:30:16.434Z,60.27
2019-04-27T23:32:52.769Z,59.40
2019-04-27T23:35:25.750Z,59.35
2019-04-27T23:37:55.664Z,59.25
2019-04-27T23:40:27.596Z,59.19
2019-04-27T23:43:01.584Z,59.55
2019-04-27T23:45:31.772Z,58.80
2019-04-27T23:48:00.678Z,59.34
2019-04-27T23:51:11.610Z,59.29
2019-04-27T23:53:41.767Z,59.07
2019-04-27T23:56:10.693Z,58.68
2019-04-27T23:58:39.287Z,58.86
